createdAt,value
2023-07-24T00:00:01.246Z,65.4
2023-07-24T00:05:01.296Z,66.1
2023-07-24T00:10:01.159Z,66.8
2023-07-24T00:15:01.287Z,68.2
2023-07-24T00:20:01.163Z,69.2
2023-07-24T00:25:01.191Z,66.5
2023-07-24T00:30:01.142Z,67.3
2023-07-24T00:35:01.218Z,67.4
2023-07-24T00:40:01.170Z,65.8
2023-07-24T00:45:03.359Z,64.7
2023-07-24T00:55:01.235Z,64.3
2023-07-24T01:00:01.130Z,63.5
2023-07-24T01:05:01.265Z,63.1
2023-07-24T01:10:01.089Z,63.9
2023-07-24T01:15:02.188Z,65.0
2023-07-24T01:35:01.800Z,62.2
2023-07-24T01:40:01.633Z,62.9
2023-07-24T01:45:01.701Z,63.9
2023-07-24T01:50:01.634Z,63.4
2023-07-24T01:55:01.738Z,63.5
2023-07-24T02:00:06.628Z,64.2
2023-07-24T02:05:01.795Z,65.1
2023-07-24T02:10:01.638Z,65.7
2023-07-24T02:15:02.202Z,66.9
2023-07-24T02:20:01.632Z,66.6
2023-07-24T02:25:01.702Z,66.2
2023-07-24T02:30:01.640Z,65.2
2023-07-24T02:35:01.741Z,63.2
2023-07-24T02:40:01.765Z,62.6
2023-07-24T02:45:01.771Z,62.3
2023-07-24T02:50:01.668Z,62.0
2023-07-24T03:00:01.820Z,63.3
2023-07-24T03:05:01.701Z,63.9
2023-07-24T03:10:01.600Z,64.7
2023-07-24T03:15:01.638Z,65.2
2023-07-24T03:20:01.629Z,66.1
2023-07-24T03:25:01.636Z,64.8
2023-07-24T03:30:01.676Z,64.6
2023-07-24T03:35:01.699Z,63.4
2023-07-24T03:40:01.576Z,62.9
2023-07-24T03:45:01.679Z,62.5
2023-07-24T03:50:01.617Z,62.9
2023-07-24T03:55:01.774Z,61.6
2023-07-24T04:00:01.834Z,61.5
2023-07-24T04:05:02.125Z,60.9
2023-07-24T04:10:01.488Z,60.5
2023-07-24T04:15:01.571Z,60.6
2023-07-24T04:20:01.770Z,61.0
2023-07-24T04:25:02.324Z,62.3
2023-07-24T04:30:01.546Z,63.3
2023-07-24T04:35:02.257Z,63.5
2023-07-24T04:40:01.590Z,64.0
2023-07-24T04:45:07.034Z,63.8
2023-07-24T04:50:01.571Z,62.6
2023-07-24T04:55:01.581Z,62.1
2023-07-24T05:00:01.550Z,62.0
2023-07-24T05:05:01.558Z,61.2
2023-07-24T05:10:01.544Z,60.9
2023-07-24T05:15:01.553Z,61.6
2023-07-24T05:20:01.515Z,62.2
2023-07-24T05:25:01.626Z,60.5
2023-07-24T05:30:01.497Z,60.0
2023-07-24T05:35:01.603Z,59.6
2023-07-24T05:40:01.887Z,59.4
2023-07-24T05:45:01.536Z,57.9
2023-07-24T05:50:01.474Z,58.9
2023-07-24T05:55:01.523Z,59.7
2023-07-24T06:00:01.726Z,60.6
2023-07-24T06:05:01.675Z,59.6
2023-07-24T06:10:01.451Z,59.9
2023-07-24T06:15:01.576Z,59.4
2023-07-24T06:20:01.479Z,59.1
2023-07-24T06:25:01.498Z,58.7
2023-07-24T06:30:13.469Z,59.1
2023-07-24T06:35:01.498Z,59.7
2023-07-24T06:40:01.453Z,60.5
2023-07-24T06:45:01.493Z,61.1
2023-07-24T06:55:01.508Z,61.9
2023-07-24T07:00:01.716Z,63.4
2023-07-24T07:05:01.553Z,63.6
2023-07-24T07:10:01.442Z,63.5
2023-07-24T07:15:01.784Z,63.9
2023-07-24T07:20:01.424Z,63.3
2023-07-24T07:25:01.480Z,61.6
2023-07-24T07:30:01.404Z,61.3
2023-07-24T07:35:01.533Z,61.2
2023-07-24T07:40:01.667Z,60.6
2023-07-24T07:45:01.549Z,61.0
2023-07-24T07:50:01.468Z,61.6
2023-07-24T07:55:01.603Z,62.1
2023-07-24T08:00:01.472Z,65.0
2023-07-24T08:05:06.556Z,64.8
2023-07-24T08:10:01.385Z,63.9
2023-07-24T08:15:01.455Z,63.1
2023-07-24T08:20:01.663Z,62.3
2023-07-24T08:25:01.495Z,58.8
2023-07-24T08:30:01.375Z,59.7
2023-07-24T08:35:01.456Z,60.3
2023-07-24T08:40:01.395Z,61.0
2023-07-24T08:45:01.429Z,67.1
2023-07-24T08:50:01.395Z,67.2
2023-07-24T08:55:01.916Z,66.6
2023-07-24T09:00:01.405Z,66.6
2023-07-24T09:05:01.967Z,66.2
2023-07-24T09:10:01.371Z,60.2
2023-07-24T09:15:01.928Z,59.9
2023-07-24T09:20:01.399Z,59.5
2023-07-24T09:25:01.414Z,59.4
2023-07-24T09:30:01.365Z,59.0
2023-07-24T09:35:01.397Z,59.4
2023-07-24T09:55:01.437Z,64.4
2023-07-24T10:00:01.239Z,64.6
2023-07-24T10:05:01.336Z,65.3
2023-07-24T10:10:00.928Z,65.5
2023-07-24T10:15:01.090Z,65.4
2023-07-24T10:25:01.077Z,65.2
2023-07-24T10:30:00.929Z,65.0
2023-07-24T10:35:01.040Z,64.9
2023-07-24T10:45:01.002Z,65.9
2023-07-24T10:50:00.935Z,66.1
2023-07-24T10:55:01.087Z,66.0
2023-07-24T11:00:00.939Z,65.7
2023-07-24T11:05:02.054Z,65.5
2023-07-24T11:10:01.031Z,64.4
2023-07-24T11:15:01.039Z,64.3
2023-07-24T11:20:00.992Z,63.9
2023-07-24T11:25:01.017Z,64.2
2023-07-24T11:30:00.953Z,65.2
2023-07-24T11:35:01.108Z,66.1
2023-07-24T11:40:00.952Z,67.0
2023-07-24T11:45:01.050Z,67.4
2023-07-24T11:50:00.953Z,67.3
2023-07-24T11:55:02.130Z,66.1
2023-07-24T12:00:00.953Z,65.5
2023-07-24T12:05:01.080Z,64.7
2023-07-24T12:10:00.951Z,66.4
2023-07-24T12:15:01.179Z,67.2
2023-07-24T12:20:01.003Z,68.0
2023-07-24T12:25:01.014Z,68.6
2023-07-24T12:30:01.086Z,68.7
2023-07-24T12:35:01.080Z,67.2
2023-07-24T12:40:01.025Z,66.6
2023-07-24T12:45:01.049Z,66.3
2023-07-24T12:50:00.954Z,66.0
2023-07-24T13:00:01.091Z,66.5
2023-07-24T13:05:01.021Z,66.3
2023-07-24T13:10:00.955Z,66.2
2023-07-24T13:15:01.040Z,66.0
2023-07-24T13:20:01.013Z,66.1
2023-07-24T13:25:01.317Z,65.9
2023-07-24T13:30:00.958Z,65.9
2023-07-24T13:35:01.146Z,66.1
2023-07-24T13:40:01.300Z,66.4
2023-07-24T13:45:01.084Z,66.4
2023-07-24T13:50:00.998Z,66.5
2023-07-24T14:00:01.103Z,66.4
2023-07-24T14:10:01.096Z,66.6
2023-07-24T14:15:01.022Z,66.4
2023-07-24T14:20:01.011Z,66.8
2023-07-24T14:25:01.089Z,66.9
2023-07-24T14:30:00.960Z,66.6
2023-07-24T14:35:01.095Z,66.2
2023-07-24T14:40:01.053Z,65.7
2023-07-24T14:45:01.115Z,65.5
2023-07-24T14:50:01.078Z,69.4
2023-07-24T14:55:01.140Z,69.0
2023-07-24T15:00:01.058Z,69.0
2023-07-24T15:05:01.083Z,69.7
2023-07-24T15:35:01.021Z,65.4
2023-07-24T15:40:00.857Z,64.3
2023-07-24T15:45:01.002Z,64.1
2023-07-24T15:50:00.853Z,64.0
2023-07-24T15:55:00.996Z,64.4
2023-07-24T16:00:01.017Z,64.8
2023-07-24T16:05:01.033Z,65.2
2023-07-24T16:10:00.905Z,65.6
2023-07-24T16:15:01.002Z,65.9
2023-07-24T16:20:00.904Z,65.3
2023-07-24T16:25:00.952Z,65.0
2023-07-24T16:30:00.899Z,65.4
2023-07-24T16:35:01.473Z,65.5
2023-07-24T16:40:00.925Z,65.3
2023-07-24T16:45:02.444Z,69.8
2023-07-24T16:55:01.115Z,69.4
2023-07-24T17:00:00.942Z,69.2
2023-07-24T17:05:01.059Z,69.4
2023-07-24T17:10:00.936Z,65.5
2023-07-24T17:15:01.025Z,65.6
2023-07-24T17:20:01.030Z,65.7
2023-07-24T17:25:01.075Z,65.8
2023-07-24T17:30:01.112Z,65.4
2023-07-24T17:35:01.112Z,64.7
2023-07-24T17:40:00.908Z,64.4
2023-07-24T17:45:01.977Z,64.2
2023-07-24T17:50:06.181Z,63.7
2023-07-24T17:55:00.947Z,64.0
2023-07-24T18:00:00.846Z,64.3
2023-07-24T18:05:00.979Z,64.8
2023-07-24T18:10:00.838Z,65.7
2023-07-24T18:15:00.971Z,67.2
2023-07-24T18:20:00.847Z,68.2
2023-07-24T18:25:00.968Z,69.4
2023-07-24T18:30:00.835Z,70.2
2023-07-24T18:35:00.933Z,70.7
2023-07-24T18:40:00.951Z,70.3
2023-07-24T18:45:01.001Z,70.5
2023-07-24T18:50:00.867Z,70.7
2023-07-24T18:55:00.944Z,70.3
2023-07-24T19:00:00.904Z,69.6
2023-07-24T19:05:01.083Z,69.2
2023-07-24T19:10:00.863Z,68.5
2023-07-24T19:15:01.032Z,67.4
2023-07-24T19:20:01.011Z,66.7
2023-07-24T19:25:01.197Z,67.3
2023-07-24T19:30:00.872Z,66.5
2023-07-24T19:35:01.990Z,65.6
2023-07-24T19:40:00.880Z,65.1
2023-07-24T19:45:01.010Z,64.6
2023-07-24T19:50:00.857Z,63.1
2023-07-24T19:55:01.001Z,63.2
2023-07-24T20:00:00.849Z,63.2
2023-07-24T20:05:00.975Z,63.4
2023-07-24T20:10:00.839Z,65.3
2023-07-24T20:15:00.932Z,64.8
2023-07-24T20:20:00.828Z,65.2
2023-07-24T20:25:00.981Z,65.0
2023-07-24T20:30:00.855Z,64.4
2023-07-24T20:35:01.007Z,62.1
2023-07-24T20:40:00.841Z,62.8
2023-07-24T20:45:00.987Z,62.3
2023-07-24T20:50:00.851Z,63.2
2023-07-24T20:55:05.950Z,64.6
2023-07-24T21:00:00.845Z,67.0
2023-07-24T21:05:00.951Z,68.6
2023-07-24T21:10:00.850Z,69.8
2023-07-24T21:15:01.009Z,71.4
2023-07-24T21:20:00.840Z,71.6
2023-07-24T21:25:00.902Z,72.3
2023-07-24T21:30:00.930Z,72.0
2023-07-24T21:35:01.107Z,73.1
2023-07-24T21:40:00.832Z,73.3
2023-07-24T21:45:00.967Z,74.3
2023-07-24T21:50:00.831Z,73.8
2023-07-24T22:00:00.925Z,73.6
2023-07-24T22:05:00.917Z,71.6
2023-07-24T22:10:00.835Z,70.3
2023-07-24T22:15:00.930Z,69.4
2023-07-24T22:20:00.854Z,68.7
2023-07-24T22:25:00.967Z,67.8
2023-07-24T22:30:00.839Z,68.1
2023-07-24T22:35:00.943Z,68.2
2023-07-24T22:40:00.863Z,67.7
2023-07-24T22:45:00.921Z,68.7
2023-07-24T22:50:00.859Z,71.4
2023-07-24T22:55:00.963Z,72.9
2023-07-24T23:00:00.956Z,73.6
2023-07-24T23:05:01.044Z,74.8
2023-07-24T23:10:00.934Z,71.2
2023-07-24T23:15:01.054Z,68.7
2023-07-24T23:20:01.005Z,67.2
2023-07-24T23:25:00.989Z,66.2
2023-07-24T23:30:01.012Z,65.1
2023-07-24T23:35:00.971Z,67.3
2023-07-24T23:40:00.922Z,67.8
2023-07-24T23:45:01.042Z,69.3
2023-07-24T23:50:00.912Z,70.6
2023-07-24T23:55:01.043Z,72.2
